createdAt,value
2023-03-31T00:01:18.707Z,74.66
2023-03-31T00:03:05.689Z,74.72
2023-03-31T00:04:40.129Z,74.58
2023-03-31T00:06:13.421Z,74.82
2023-03-31T00:08:01.705Z,74.48
2023-03-31T00:09:25.837Z,74.63
2023-03-31T00:11:06.599Z,74.38
2023-03-31T00:12:44.732Z,74.43
2023-03-31T00:14:18.249Z,74.91
2023-03-31T00:15:56.103Z,74.83
2023-03-31T00:17:33.147Z,74.89
2023-03-31T00:19:02.625Z,75.12
2023-03-31T00:20:38.205Z,75.17
2023-03-31T00:22:11.625Z,75.41
2023-03-31T00:23:54.468Z,75.10
2023-03-31T00:25:31.061Z,75.39
2023-03-31T00:27:11.349Z,75.15
2023-03-31T00:28:52.322Z,75.60
2023-03-31T00:30:33.770Z,75.41
2023-03-31T00:32:19.133Z,75.56
2023-03-31T00:34:06.367Z,75.31
2023-03-31T00:35:29.185Z,75.32
2023-03-31T00:36:56.389Z,75.22
2023-03-31T00:38:22.980Z,75.31
2023-03-31T00:39:46.519Z,75.33
2023-03-31T00:41:10.509Z,75.68
2023-03-31T00:42:44.015Z,75.60
2023-03-31T00:44:10.625Z,75.71
2023-03-31T00:45:56.766Z,75.24
2023-03-31T00:47:32.734Z,75.45
2023-03-31T00:48:57.513Z,75.71
2023-03-31T00:50:26.762Z,75.71
2023-03-31T00:52:03.582Z,75.69
2023-03-31T00:53:29.864Z,75.94
2023-03-31T00:55:10.602Z,75.99
2023-03-31T00:56:46.576Z,75.88
2023-03-31T00:58:15.264Z,76.25
2023-03-31T00:59:57.260Z,76.24
2023-03-31T01:01:30.999Z,76.10
2023-03-31T01:03:16.214Z,75.67
2023-03-31T01:04:55.002Z,76.20
2023-03-31T01:06:28.710Z,76.53
2023-03-31T01:08:02.539Z,76.31
2023-03-31T01:09:43.114Z,76.48
2023-03-31T01:11:31.088Z,76.56
2023-03-31T01:13:10.792Z,76.54
2023-03-31T01:14:46.418Z,76.38
2023-03-31T01:16:26.830Z,76.56
2023-03-31T01:18:12.117Z,76.56
2023-03-31T01:19:47.362Z,76.79
2023-03-31T01:21:23.324Z,76.68
2023-03-31T01:23:11.073Z,77.02
2023-03-31T01:24:51.649Z,76.94
2023-03-31T01:26:28.758Z,77.11
2023-03-31T01:28:13.297Z,77.23
2023-03-31T01:29:46.578Z,77.29
2023-03-31T01:31:32.355Z,77.02
2023-03-31T01:33:19.668Z,77.15
2023-03-31T01:34:41.832Z,77.08
2023-03-31T01:36:17.965Z,76.94
2023-03-31T01:37:44.309Z,77.35
2023-03-31T01:39:17.735Z,77.50
2023-03-31T01:41:02.792Z,77.22
2023-03-31T01:42:38.766Z,77.28
2023-03-31T01:44:24.456Z,77.48
2023-03-31T01:45:50.750Z,77.24
2023-03-31T01:47:24.502Z,77.28
2023-03-31T01:48:57.870Z,77.30
2023-03-31T01:50:32.698Z,77.46
2023-03-31T01:52:18.472Z,77.56
2023-03-31T01:53:54.441Z,77.63
2023-03-31T01:55:40.126Z,77.66
2023-03-31T01:57:25.253Z,77.31
2023-03-31T01:58:54.850Z,77.17
2023-03-31T02:00:48.492Z,77.56
2023-03-31T02:02:24.297Z,77.51
2023-03-31T02:04:00.106Z,77.78
2023-03-31T02:05:54.641Z,77.82
2023-03-31T02:07:27.857Z,77.81
2023-03-31T02:09:04.137Z,77.63
2023-03-31T02:10:37.496Z,77.63
2023-03-31T02:12:13.450Z,77.62
2023-03-31T02:13:47.307Z,77.73
2023-03-31T02:15:23.137Z,77.94
2023-03-31T02:16:59.157Z,77.95
2023-03-31T02:18:26.271Z,78.00
2023-03-31T02:20:16.643Z,77.83
2023-03-31T02:21:50.185Z,77.81
2023-03-31T02:23:43.894Z,77.95
2023-03-31T02:25:19.685Z,78.07
2023-03-31T02:26:43.460Z,77.80
2023-03-31T02:28:28.547Z,78.01
2023-03-31T02:30:03.860Z,78.20
2023-03-31T02:31:39.997Z,78.16
2023-03-31T02:33:16.135Z,78.20
2023-03-31T02:34:54.199Z,78.09
2023-03-31T02:36:35.950Z,78.38
2023-03-31T02:38:11.884Z,78.39
2023-03-31T02:39:56.994Z,78.44
2023-03-31T02:41:41.993Z,78.52
2023-03-31T02:43:22.921Z,78.53
2023-03-31T02:45:10.441Z,78.56
2023-03-31T02:46:43.943Z,78.80
2023-03-31T02:48:19.627Z,78.85
2023-03-31T02:49:52.691Z,78.73
2023-03-31T02:51:26.818Z,78.68
2023-03-31T02:52:50.836Z,78.70
2023-03-31T02:54:26.504Z,78.67
2023-03-31T02:56:03.088Z,78.92
2023-03-31T02:57:49.109Z,78.85
2023-03-31T02:59:34.585Z,78.85
2023-03-31T03:01:10.251Z,78.87
2023-03-31T03:02:51.284Z,78.91
2023-03-31T03:04:25.278Z,78.91
2023-03-31T03:06:06.114Z,79.18
2023-03-31T03:07:58.785Z,79.04
2023-03-31T03:09:32.701Z,79.42
2023-03-31T03:11:18.401Z,79.48
2023-03-31T03:13:03.385Z,79.35
2023-03-31T03:14:28.559Z,79.46
2023-03-31T03:16:01.844Z,79.58
2023-03-31T03:17:33.607Z,79.87
2023-03-31T03:19:15.510Z,79.80
2023-03-31T03:20:53.260Z,79.84
2023-03-31T03:22:43.660Z,79.79
2023-03-31T03:24:24.229Z,79.91
2023-03-31T03:26:09.396Z,80.08
2023-03-31T03:27:54.607Z,79.91
2023-03-31T03:29:30.100Z,79.87
2023-03-31T03:31:14.587Z,79.98
2023-03-31T03:33:08.287Z,79.95
2023-03-31T03:34:52.167Z,79.81
2023-03-31T03:36:41.564Z,79.51
2023-03-31T03:38:14.812Z,79.75
2023-03-31T03:39:59.679Z,79.64
2023-03-31T03:41:25.782Z,79.58
2023-03-31T03:43:08.874Z,79.51
2023-03-31T03:44:46.426Z,79.61
2023-03-31T03:46:10.345Z,79.70
2023-03-31T03:47:56.439Z,79.42
2023-03-31T03:49:29.968Z,79.47
2023-03-31T03:51:14.957Z,79.59
2023-03-31T03:52:48.394Z,79.52
2023-03-31T03:54:41.992Z,79.41
2023-03-31T03:56:03.472Z,79.51
2023-03-31T03:57:47.543Z,79.56
2023-03-31T03:59:21.175Z,79.51
2023-03-31T04:00:50.580Z,79.46
2023-03-31T04:02:26.848Z,79.55
2023-03-31T04:04:13.318Z,79.42
2023-03-31T04:05:58.450Z,79.38
2023-03-31T04:07:29.914Z,79.38
2023-03-31T04:09:03.923Z,79.40
2023-03-31T04:10:39.967Z,79.26
2023-03-31T04:12:13.225Z,79.06
2023-03-31T04:13:56.648Z,78.99
2023-03-31T04:15:30.589Z,78.83
2023-03-31T04:17:03.857Z,78.81
2023-03-31T04:18:39.659Z,78.95
2023-03-31T04:20:25.139Z,78.88
2023-03-31T04:22:02.316Z,79.05
2023-03-31T04:23:38.447Z,78.83
2023-03-31T04:25:02.844Z,78.58
2023-03-31T04:26:56.590Z,78.56
2023-03-31T04:28:29.999Z,78.75
2023-03-31T04:30:14.953Z,78.84
2023-03-31T04:31:59.887Z,78.89
2023-03-31T04:33:23.591Z,78.83
2023-03-31T04:34:58.372Z,78.96
2023-03-31T04:36:20.053Z,78.76
2023-03-31T04:38:10.357Z,78.87
2023-03-31T04:39:34.742Z,79.07
2023-03-31T04:41:15.474Z,78.70
2023-03-31T04:42:51.225Z,78.86
2023-03-31T04:44:26.931Z,79.00
2023-03-31T04:46:02.383Z,79.10
2023-03-31T04:47:48.891Z,79.03
2023-03-31T04:49:29.556Z,79.06
2023-03-31T04:51:04.277Z,79.00
2023-03-31T04:52:39.979Z,78.71
2023-03-31T04:54:20.778Z,79.05
2023-03-31T04:56:06.532Z,78.74
2023-03-31T04:57:30.905Z,78.92
2023-03-31T04:59:04.371Z,78.81
2023-03-31T05:00:54.289Z,78.81
2023-03-31T05:02:35.461Z,78.77
2023-03-31T05:04:09.336Z,78.67
2023-03-31T05:05:46.389Z,78.66
2023-03-31T05:07:12.708Z,78.73
2023-03-31T05:08:49.012Z,78.72
2023-03-31T05:10:13.177Z,78.67
2023-03-31T05:11:35.285Z,78.61
2023-03-31T05:13:10.095Z,78.62
2023-03-31T05:15:00.364Z,78.83
2023-03-31T05:16:52.522Z,78.68
2023-03-31T05:18:33.265Z,78.37
2023-03-31T05:20:13.874Z,78.53
2023-03-31T05:21:54.957Z,78.66
2023-03-31T05:23:28.329Z,78.78
2023-03-31T05:25:13.335Z,78.68
2023-03-31T05:27:01.468Z,78.77
2023-03-31T05:28:44.308Z,78.91
2023-03-31T05:30:18.249Z,78.88
2023-03-31T05:31:58.693Z,78.94
2023-03-31T05:33:47.045Z,78.79
2023-03-31T05:35:20.507Z,78.71
2023-03-31T05:36:55.040Z,78.80
2023-03-31T05:38:41.832Z,78.99
2023-03-31T05:40:15.319Z,79.06
2023-03-31T05:42:00.016Z,79.20
2023-03-31T05:43:35.480Z,78.95
2023-03-31T05:45:18.483Z,79.00
2023-03-31T05:47:03.511Z,78.70
2023-03-31T05:48:38.040Z,78.76
2023-03-31T05:50:14.041Z,79.06
2023-03-31T05:52:07.766Z,79.08
2023-03-31T05:53:48.482Z,79.13
2023-03-31T05:55:33.882Z,78.77
2023-03-31T05:57:18.813Z,78.56
2023-03-31T05:59:12.121Z,78.41
2023-03-31T06:00:57.171Z,78.52
2023-03-31T06:02:51.617Z,78.43
2023-03-31T06:04:37.108Z,78.53
2023-03-31T06:06:24.585Z,78.41
2023-03-31T06:07:58.084Z,78.27
2023-03-31T06:09:46.343Z,78.29
2023-03-31T06:11:19.736Z,78.53
2023-03-31T06:12:43.854Z,78.42
2023-03-31T06:14:28.621Z,78.21
2023-03-31T06:16:04.294Z,78.18
2023-03-31T06:17:55.872Z,78.29
2023-03-31T06:19:40.939Z,78.39
2023-03-31T06:21:26.025Z,78.27
2023-03-31T06:23:11.228Z,77.98
2023-03-31T06:24:44.446Z,78.06
2023-03-31T06:26:15.530Z,77.68
2023-03-31T06:28:00.506Z,77.65
2023-03-31T06:29:34.182Z,77.60
2023-03-31T06:31:14.765Z,77.51
2023-03-31T06:32:48.621Z,77.52
2023-03-31T06:34:21.905Z,76.96
2023-03-31T06:36:06.665Z,76.81
2023-03-31T06:37:53.069Z,76.77
2023-03-31T06:39:28.227Z,76.53
2023-03-31T06:41:01.627Z,76.39
2023-03-31T06:42:36.976Z,76.39
2023-03-31T06:44:12.843Z,76.56
2023-03-31T06:46:00.329Z,76.60
2023-03-31T06:47:26.572Z,76.32
2023-03-31T06:49:08.890Z,76.16
2023-03-31T06:50:58.068Z,75.78
2023-03-31T06:52:43.352Z,75.42
2023-03-31T06:54:17.199Z,75.54
2023-03-31T06:55:58.041Z,75.20
2023-03-31T06:57:26.853Z,75.20
2023-03-31T06:58:58.589Z,75.51
2023-03-31T07:00:33.964Z,75.42
2023-03-31T07:02:19.166Z,75.26
2023-03-31T07:03:48.523Z,74.88
2023-03-31T07:05:41.537Z,74.89
2023-03-31T07:07:17.344Z,74.46
2023-03-31T07:09:09.328Z,74.75
2023-03-31T07:10:54.623Z,74.80
2023-03-31T07:12:31.106Z,75.01
2023-03-31T07:14:04.538Z,74.68
2023-03-31T07:15:38.153Z,74.76
2023-03-31T07:17:11.433Z,74.68
2023-03-31T07:19:00.066Z,74.32
2023-03-31T07:20:45.216Z,73.87
2023-03-31T07:22:29.491Z,73.90
2023-03-31T07:24:10.670Z,73.71
2023-03-31T07:26:00.037Z,73.85
2023-03-31T07:27:33.272Z,73.60
2023-03-31T07:29:02.432Z,73.41
2023-03-31T07:30:47.707Z,73.18
2023-03-31T07:32:29.233Z,73.25
2023-03-31T07:34:05.252Z,73.10
2023-03-31T07:35:36.217Z,72.91
2023-03-31T07:37:21.292Z,73.15
2023-03-31T07:38:52.765Z,73.04
2023-03-31T07:40:27.437Z,72.82
2023-03-31T07:42:03.713Z,72.74
2023-03-31T07:43:48.806Z,72.97
2023-03-31T07:45:37.832Z,72.66
2023-03-31T07:47:11.330Z,72.30
2023-03-31T07:49:06.483Z,72.42
2023-03-31T07:50:39.829Z,71.93
2023-03-31T07:52:24.927Z,71.74
2023-03-31T07:54:18.604Z,71.69
2023-03-31T07:56:03.524Z,71.86
2023-03-31T07:57:51.607Z,71.30
2023-03-31T07:59:24.888Z,71.39
2023-03-31T08:01:05.592Z,70.89
2023-03-31T08:02:48.572Z,70.97
2023-03-31T08:04:34.008Z,70.49
2023-03-31T08:06:14.741Z,70.64
2023-03-31T08:07:55.809Z,70.62
2023-03-31T08:09:37.251Z,71.00
2023-03-31T08:11:22.301Z,70.49
2023-03-31T08:13:08.733Z,70.63
2023-03-31T08:14:54.482Z,70.26
2023-03-31T08:16:39.520Z,69.91
2023-03-31T08:18:21.923Z,69.71
2023-03-31T08:20:08.035Z,69.37
2023-03-31T08:21:42.181Z,69.25
2023-03-31T08:23:15.706Z,69.44
2023-03-31T08:25:00.671Z,68.93
2023-03-31T08:26:24.163Z,68.84
2023-03-31T08:27:57.589Z,68.76
2023-03-31T08:29:31.279Z,68.65
2023-03-31T08:30:57.691Z,68.83
2023-03-31T08:32:31.315Z,69.13
2023-03-31T08:34:11.881Z,68.57
2023-03-31T08:35:45.450Z,68.17
2023-03-31T08:37:26.078Z,67.85
2023-03-31T08:39:06.858Z,67.44
2023-03-31T08:40:40.593Z,67.41
2023-03-31T08:42:27.125Z,67.86
2023-03-31T08:44:00.489Z,67.52
2023-03-31T08:45:46.826Z,67.41
2023-03-31T08:47:27.678Z,67.00
2023-03-31T08:49:12.794Z,66.93
2023-03-31T08:50:46.095Z,66.79
2023-03-31T08:52:19.406Z,67.18
2023-03-31T08:53:55.949Z,67.26
2023-03-31T08:55:41.230Z,66.80
2023-03-31T08:57:21.831Z,66.47
2023-03-31T08:59:09.906Z,66.58
2023-03-31T09:00:43.674Z,66.05
2023-03-31T09:02:18.478Z,65.56
2023-03-31T09:04:06.385Z,65.54
2023-03-31T09:05:49.385Z,65.52
2023-03-31T09:07:33.405Z,65.60
2023-03-31T09:09:08.477Z,66.02
2023-03-31T09:10:37.924Z,66.11
2023-03-31T09:12:07.890Z,65.86
2023-03-31T09:13:48.876Z,66.04
2023-03-31T09:15:34.126Z,65.71
2023-03-31T09:17:15.396Z,65.40
2023-03-31T09:18:37.538Z,65.19
2023-03-31T09:20:11.118Z,64.89
2023-03-31T09:21:47.046Z,64.95
2023-03-31T09:23:08.918Z,65.20
2023-03-31T09:24:33.105Z,65.08
2023-03-31T09:25:55.147Z,64.86
2023-03-31T09:27:19.435Z,64.78
2023-03-31T09:28:43.815Z,65.06
2023-03-31T09:30:28.761Z,65.14
2023-03-31T09:31:54.883Z,64.78
2023-03-31T09:33:35.737Z,64.70
2023-03-31T09:35:12.448Z,64.25
2023-03-31T09:36:38.685Z,64.00
2023-03-31T09:38:02.525Z,63.75
2023-03-31T09:39:31.424Z,63.37
2023-03-31T09:40:52.953Z,63.25
2023-03-31T09:42:14.820Z,63.58
2023-03-31T09:44:00.154Z,63.71
2023-03-31T09:45:39.545Z,63.58
2023-03-31T09:47:13.194Z,63.23
2023-03-31T09:48:48.394Z,63.32
2023-03-31T09:50:25.432Z,63.38
2023-03-31T09:51:47.861Z,63.34
2023-03-31T09:55:36.055Z,63.25
2023-03-31T09:57:09.023Z,62.64
2023-03-31T09:58:44.465Z,62.59
2023-03-31T10:00:28.084Z,62.65
2023-03-31T10:02:13.252Z,62.93
2023-03-31T10:03:58.283Z,63.04
2023-03-31T10:05:32.344Z,62.69
2023-03-31T10:07:13.233Z,62.92
2023-03-31T10:08:55.077Z,62.84
2023-03-31T10:10:26.263Z,62.68
2023-03-31T10:11:59.702Z,62.61
2023-03-31T10:13:33.275Z,62.35
2023-03-31T10:15:18.478Z,61.90
2023-03-31T10:16:58.740Z,61.57
2023-03-31T10:18:48.290Z,61.61
2023-03-31T10:20:28.706Z,61.09
2023-03-31T10:22:04.858Z,60.90
2023-03-31T10:23:58.329Z,60.65
2023-03-31T10:25:39.621Z,60.53
2023-03-31T10:27:12.728Z,60.59
2023-03-31T10:28:58.919Z,60.84
2023-03-31T10:30:43.962Z,60.69
2023-03-31T10:32:29.250Z,60.64
2023-03-31T10:34:11.620Z,60.29
2023-03-31T10:36:05.287Z,59.45
2023-03-31T10:37:41.091Z,58.53
2023-03-31T10:39:14.547Z,58.53
2023-03-31T10:40:59.831Z,58.81
2023-03-31T10:42:45.057Z,58.07
2023-03-31T10:44:25.662Z,56.95
2023-03-31T10:46:01.183Z,56.27
2023-03-31T10:47:25.053Z,56.77
2023-03-31T10:49:01.198Z,56.49
2023-03-31T10:50:34.426Z,56.21
2023-03-31T10:52:14.975Z,56.09
2023-03-31T10:53:48.733Z,55.71
2023-03-31T10:55:22.030Z,55.54
2023-03-31T10:56:44.706Z,55.70
2023-03-31T10:58:06.657Z,55.56
2023-03-31T10:59:36.643Z,55.37
2023-03-31T11:01:13.216Z,55.02
2023-03-31T11:02:59.000Z,54.54
2023-03-31T11:04:35.364Z,55.25
2023-03-31T11:06:12.159Z,55.42
2023-03-31T11:07:56.663Z,55.20
2023-03-31T11:09:30.074Z,54.89
2023-03-31T11:11:15.359Z,54.50
2023-03-31T11:13:04.873Z,54.41
2023-03-31T11:14:40.832Z,54.46
2023-03-31T11:16:26.476Z,54.68
2023-03-31T11:18:02.677Z,54.52
2023-03-31T11:19:48.845Z,54.22
2023-03-31T11:21:24.228Z,52.63
2023-03-31T11:23:06.793Z,52.52
2023-03-31T11:24:35.442Z,52.58
2023-03-31T11:26:20.481Z,52.35
2023-03-31T11:27:53.741Z,53.30
2023-03-31T11:29:30.909Z,54.07
2023-03-31T11:30:52.544Z,53.89
2023-03-31T11:32:31.217Z,54.08
2023-03-31T11:34:04.730Z,53.52
2023-03-31T11:35:38.494Z,53.48
2023-03-31T11:37:13.202Z,53.16
2023-03-31T11:38:54.228Z,52.64
2023-03-31T11:40:34.440Z,52.37
2023-03-31T11:42:27.700Z,52.60
2023-03-31T11:44:14.262Z,52.50
2023-03-31T11:45:59.453Z,53.00
2023-03-31T11:47:44.609Z,53.23
2023-03-31T11:49:17.972Z,53.68
2023-03-31T11:50:53.872Z,53.58
2023-03-31T11:54:29.497Z,54.44
2023-03-31T11:56:10.844Z,54.68
2023-03-31T11:58:04.023Z,55.01
2023-03-31T11:59:29.900Z,54.91
2023-03-31T12:01:15.175Z,55.23
2023-03-31T12:03:04.291Z,55.38
2023-03-31T12:04:37.726Z,55.12
2023-03-31T12:06:23.564Z,55.24
2023-03-31T12:07:48.109Z,55.27
2023-03-31T12:09:21.075Z,55.38
2023-03-31T12:10:59.149Z,55.44
2023-03-31T12:12:42.629Z,55.32
2023-03-31T12:14:18.044Z,55.08
2023-03-31T12:15:51.493Z,55.13
2023-03-31T12:17:36.370Z,55.09
2023-03-31T12:19:00.858Z,55.34
2023-03-31T12:20:41.734Z,55.42
2023-03-31T12:22:22.371Z,55.26
2023-03-31T12:23:58.570Z,55.07
2023-03-31T12:25:22.854Z,54.94
2023-03-31T12:27:03.915Z,55.13
2023-03-31T12:28:57.459Z,55.23
2023-03-31T12:30:42.920Z,54.85
2023-03-31T12:32:16.406Z,55.03
2023-03-31T12:33:59.593Z,55.07
2023-03-31T12:35:49.112Z,55.10
2023-03-31T12:37:31.077Z,55.12
2023-03-31T12:39:16.264Z,55.33
2023-03-31T12:41:10.608Z,55.65
2023-03-31T12:42:45.680Z,55.90
2023-03-31T12:44:26.295Z,55.96
2023-03-31T12:45:57.781Z,55.98
2023-03-31T12:47:42.634Z,56.04
2023-03-31T12:49:36.567Z,56.06
2023-03-31T12:51:13.242Z,56.14
2023-03-31T12:52:58.027Z,56.42
2023-03-31T12:54:31.082Z,56.96
2023-03-31T12:55:57.639Z,57.31
2023-03-31T12:57:19.357Z,57.83
2023-03-31T12:58:52.655Z,57.97
2023-03-31T13:00:37.916Z,58.75
2023-03-31T13:02:29.299Z,58.77
2023-03-31T13:04:15.832Z,58.72
2023-03-31T13:05:43.430Z,58.71
2023-03-31T13:07:27.941Z,58.73
2023-03-31T13:09:16.099Z,58.21
2023-03-31T13:10:51.853Z,57.94
2023-03-31T13:12:25.605Z,57.83
2023-03-31T13:14:00.809Z,57.85
2023-03-31T13:15:34.525Z,58.00
2023-03-31T13:17:09.963Z,57.45
2023-03-31T13:18:44.999Z,57.53
2023-03-31T13:20:20.390Z,56.61
2023-03-31T13:21:53.991Z,56.17
2023-03-31T13:23:30.494Z,55.71
2023-03-31T13:25:06.534Z,55.74
2023-03-31T13:26:30.769Z,54.90
2023-03-31T13:28:15.643Z,53.13
2023-03-31T13:30:09.231Z,51.26
2023-03-31T13:31:45.166Z,50.14
2023-03-31T13:33:18.371Z,48.52
2023-03-31T13:35:04.202Z,48.05
2023-03-31T13:36:27.980Z,46.80
2023-03-31T13:38:01.405Z,46.68
2023-03-31T13:39:54.792Z,47.07
2023-03-31T13:41:40.263Z,47.45
2023-03-31T13:43:09.086Z,47.16
2023-03-31T13:44:44.597Z,47.81
2023-03-31T13:46:29.484Z,48.29
2023-03-31T13:47:53.547Z,48.72
2023-03-31T13:49:24.809Z,49.02
2023-03-31T13:50:53.758Z,49.10
2023-03-31T13:52:34.327Z,49.62
2023-03-31T13:53:56.356Z,49.57
2023-03-31T13:55:31.525Z,48.85
2023-03-31T13:57:22.583Z,48.87
2023-03-31T13:59:14.512Z,49.00
2023-03-31T14:00:48.181Z,49.36
2023-03-31T14:02:30.727Z,49.07
2023-03-31T14:04:00.071Z,47.79
2023-03-31T14:05:36.202Z,47.21
2023-03-31T14:07:18.086Z,46.91
2023-03-31T14:09:04.606Z,46.14
2023-03-31T14:10:58.620Z,46.42
2023-03-31T14:12:40.078Z,46.40
2023-03-31T14:14:24.890Z,46.15
2023-03-31T14:15:58.505Z,46.09
2023-03-31T14:17:32.048Z,46.25
2023-03-31T14:19:17.056Z,46.10
2023-03-31T14:20:39.088Z,46.27
2023-03-31T14:22:07.862Z,46.48
2023-03-31T14:24:01.435Z,46.59
2023-03-31T14:25:56.578Z,46.85
2023-03-31T14:27:45.600Z,47.22
2023-03-31T14:29:20.650Z,47.52
2023-03-31T14:31:05.994Z,47.49
2023-03-31T14:32:51.813Z,47.51
2023-03-31T14:34:27.761Z,47.51
2023-03-31T14:36:01.860Z,47.84
2023-03-31T14:37:37.714Z,47.80
2023-03-31T14:39:22.937Z,48.08
2023-03-31T14:41:16.384Z,47.98
2023-03-31T14:43:01.496Z,48.43
2023-03-31T14:44:54.906Z,48.55
2023-03-31T14:46:35.627Z,48.63
2023-03-31T14:48:11.209Z,48.96
2023-03-31T14:49:56.879Z,49.23
2023-03-31T14:51:23.432Z,49.73
2023-03-31T14:53:08.100Z,51.12
2023-03-31T14:54:49.732Z,54.20
2023-03-31T14:56:44.629Z,58.17
2023-03-31T14:58:29.406Z,64.91
2023-03-31T14:59:53.574Z,65.98
2023-03-31T15:01:47.336Z,66.55
2023-03-31T15:05:31.903Z,68.46
2023-03-31T15:07:03.093Z,69.25
2023-03-31T15:08:57.291Z,70.06
2023-03-31T15:10:30.490Z,70.62
2023-03-31T15:12:11.972Z,71.32
2023-03-31T15:13:53.052Z,71.98
2023-03-31T15:15:56.618Z,71.92
2023-03-31T15:17:32.528Z,72.55
2023-03-31T15:19:01.960Z,72.32
2023-03-31T15:20:28.191Z,71.07
2023-03-31T15:22:01.581Z,70.43
2023-03-31T15:23:25.405Z,70.24
2023-03-31T15:24:49.554Z,70.82
2023-03-31T15:26:22.590Z,70.74
2023-03-31T15:28:10.980Z,71.40
2023-03-31T15:29:44.845Z,72.24
2023-03-31T15:31:20.431Z,72.25
2023-03-31T15:32:42.466Z,71.61
2023-03-31T15:34:28.979Z,71.41
2023-03-31T15:36:03.802Z,71.61
2023-03-31T15:37:55.317Z,71.71
2023-03-31T15:39:37.024Z,71.73
2023-03-31T15:41:06.461Z,72.10
2023-03-31T15:42:28.069Z,71.23
2023-03-31T15:43:59.323Z,71.18
2023-03-31T15:45:33.052Z,70.65
2023-03-31T15:47:08.917Z,70.48
2023-03-31T15:48:33.429Z,70.60
2023-03-31T15:50:08.130Z,70.61
2023-03-31T15:51:29.760Z,70.42
2023-03-31T15:52:53.142Z,69.73
2023-03-31T15:54:26.506Z,68.26
2023-03-31T15:56:02.110Z,68.08
2023-03-31T15:57:34.294Z,68.20
2023-03-31T15:59:19.550Z,68.38
2023-03-31T16:01:04.682Z,69.30
2023-03-31T16:02:36.689Z,69.80
2023-03-31T16:04:27.792Z,70.39
2023-03-31T16:06:04.155Z,70.67
2023-03-31T16:07:37.957Z,70.75
2023-03-31T16:09:21.974Z,70.99
2023-03-31T16:11:07.210Z,71.35
2023-03-31T16:13:00.978Z,72.01
2023-03-31T16:14:36.626Z,72.23
2023-03-31T16:16:01.206Z,72.41
2023-03-31T16:17:36.481Z,71.98
2023-03-31T16:19:04.096Z,72.60
2023-03-31T16:20:49.514Z,72.04
2023-03-31T16:22:36.499Z,72.43
2023-03-31T16:24:29.941Z,72.19
2023-03-31T16:26:05.451Z,71.73
2023-03-31T16:27:50.660Z,71.96
2023-03-31T16:29:23.642Z,72.09
2023-03-31T16:31:08.876Z,71.75
2023-03-31T16:32:55.053Z,71.78
2023-03-31T16:34:16.805Z,71.53
2023-03-31T16:35:50.144Z,71.36
2023-03-31T16:37:23.496Z,71.42
2023-03-31T16:39:15.753Z,71.36
2023-03-31T16:40:52.080Z,71.47
2023-03-31T16:42:45.639Z,71.34
2023-03-31T16:44:30.680Z,71.19
2023-03-31T16:46:15.911Z,71.23
2023-03-31T16:47:49.714Z,71.01
2023-03-31T16:49:23.140Z,71.12
2023-03-31T16:51:04.575Z,70.74
2023-03-31T16:52:50.052Z,70.95
2023-03-31T16:54:34.341Z,70.63
2023-03-31T16:55:59.319Z,70.45
2023-03-31T16:57:44.489Z,70.79
2023-03-31T16:59:23.232Z,70.47
2023-03-31T17:01:08.451Z,70.59
2023-03-31T17:03:01.973Z,70.47
2023-03-31T17:04:38.251Z,70.38
2023-03-31T17:06:22.981Z,70.83
2023-03-31T17:08:12.503Z,70.91
2023-03-31T17:09:49.672Z,70.75
2023-03-31T17:11:32.379Z,70.61
2023-03-31T17:13:09.191Z,71.27
2023-03-31T17:14:40.925Z,70.95
2023-03-31T17:16:32.907Z,71.12
2023-03-31T17:18:18.427Z,71.10
2023-03-31T17:20:01.285Z,71.23
2023-03-31T17:21:34.590Z,70.89
2023-03-31T17:23:19.451Z,71.46
2023-03-31T17:25:08.772Z,71.89
2023-03-31T17:26:39.349Z,71.79
2023-03-31T17:28:15.302Z,72.09
2023-03-31T17:30:00.887Z,72.11
2023-03-31T17:31:24.762Z,71.82
2023-03-31T17:33:10.378Z,72.43
2023-03-31T17:35:00.568Z,72.08
2023-03-31T17:36:45.591Z,72.54
2023-03-31T17:38:31.018Z,72.30
2023-03-31T17:40:12.972Z,72.15
2023-03-31T17:41:49.240Z,72.41
2023-03-31T17:43:29.406Z,72.56
2023-03-31T17:45:04.040Z,73.09
2023-03-31T17:46:52.112Z,73.04
2023-03-31T17:48:16.340Z,73.38
2023-03-31T17:49:51.846Z,74.11
2023-03-31T17:51:36.386Z,75.09
2023-03-31T17:53:18.195Z,75.58
2023-03-31T17:55:05.398Z,76.02
2023-03-31T17:56:59.087Z,77.60
2023-03-31T17:58:44.234Z,78.00
2023-03-31T18:00:08.880Z,77.91
2023-03-31T18:02:05.410Z,78.37
2023-03-31T18:03:47.448Z,78.76
2023-03-31T18:05:40.459Z,79.14
2023-03-31T18:07:25.906Z,78.71
2023-03-31T18:09:20.508Z,78.87
2023-03-31T18:13:07.866Z,78.93
2023-03-31T18:14:53.845Z,79.53
2023-03-31T18:21:33.478Z,79.68
2023-03-31T18:22:55.109Z,79.87
2023-03-31T18:32:16.404Z,80.82
2023-03-31T18:36:27.563Z,81.25
2023-03-31T18:38:09.312Z,81.74
2023-03-31T18:42:27.322Z,81.81
2023-03-31T18:43:58.679Z,81.97
2023-03-31T18:48:05.653Z,81.74
2023-03-31T18:55:05.837Z,81.80
2023-03-31T18:56:39.475Z,81.84
2023-03-31T18:58:51.797Z,82.46
2023-03-31T19:00:36.596Z,82.16
2023-03-31T19:02:21.651Z,82.26
2023-03-31T19:15:00.173Z,82.98
2023-03-31T19:21:44.069Z,82.56
2023-03-31T19:23:28.949Z,82.68
2023-03-31T19:25:13.940Z,83.13
2023-03-31T19:26:41.234Z,83.16
2023-03-31T19:28:04.112Z,83.26
2023-03-31T19:29:27.791Z,83.09
2023-03-31T19:31:08.927Z,82.97
2023-03-31T19:32:46.006Z,83.35
2023-03-31T19:34:19.748Z,83.54
2023-03-31T19:35:51.318Z,83.42
2023-03-31T19:37:41.075Z,83.44
2023-03-31T19:39:14.576Z,83.72
2023-03-31T19:40:54.725Z,83.26
2023-03-31T19:42:35.497Z,83.12
2023-03-31T19:44:16.796Z,83.12
2023-03-31T19:46:02.390Z,83.08
2023-03-31T19:47:56.377Z,82.87
2023-03-31T19:49:28.317Z,82.68
2023-03-31T19:50:52.979Z,82.79
2023-03-31T19:52:28.373Z,82.90
2023-03-31T19:53:57.881Z,83.35
2023-03-31T19:55:34.290Z,83.40
2023-03-31T19:57:01.787Z,83.24
2023-03-31T19:58:44.254Z,83.16
2023-03-31T20:00:19.941Z,84.02
2023-03-31T20:02:13.495Z,84.00
2023-03-31T20:04:07.256Z,83.56
2023-03-31T20:05:43.752Z,83.81
2023-03-31T20:07:17.946Z,83.84
2023-03-31T20:08:42.639Z,83.79
2023-03-31T20:10:19.450Z,83.64
2023-03-31T20:11:56.569Z,83.39
2023-03-31T20:13:49.974Z,83.50
2023-03-31T20:15:25.928Z,83.69
2023-03-31T20:17:03.499Z,83.60
2023-03-31T20:19:00.878Z,83.70
2023-03-31T20:20:55.694Z,83.66
2023-03-31T20:22:31.392Z,83.44
2023-03-31T20:24:18.285Z,83.71
2023-03-31T20:25:52.893Z,84.15
2023-03-31T20:27:17.130Z,83.70
2023-03-31T20:31:06.462Z,83.76
2023-03-31T20:32:40.455Z,84.13
2023-03-31T20:34:14.073Z,83.73
2023-03-31T20:35:48.490Z,84.03
2023-03-31T20:37:27.301Z,83.72
2023-03-31T20:39:04.176Z,83.82
2023-03-31T20:40:57.885Z,83.74
2023-03-31T20:42:43.327Z,83.85
2023-03-31T20:44:16.837Z,83.89
2023-03-31T20:46:04.970Z,83.51
2023-03-31T20:47:39.549Z,83.42
2023-03-31T20:49:13.452Z,83.22
2023-03-31T20:50:59.874Z,83.30
2023-03-31T20:52:23.869Z,83.11
2023-03-31T20:54:01.608Z,83.37
2023-03-31T20:55:37.195Z,83.15
2023-03-31T20:57:13.173Z,83.06
2023-03-31T20:58:48.598Z,83.42
2023-03-31T21:00:12.873Z,83.40
2023-03-31T21:01:54.059Z,83.66
2023-03-31T21:03:18.402Z,83.21
2023-03-31T21:04:54.606Z,83.57
2023-03-31T21:06:23.834Z,83.48
2023-03-31T21:08:09.462Z,83.18
2023-03-31T21:09:55.910Z,83.40
2023-03-31T21:11:37.125Z,82.98
2023-03-31T21:13:13.768Z,83.17
2023-03-31T21:15:11.660Z,83.29
2023-03-31T21:17:09.236Z,83.42
2023-03-31T21:19:04.633Z,83.11
2023-03-31T21:20:58.182Z,83.29
2023-03-31T21:22:20.565Z,83.15
2023-03-31T21:24:08.905Z,83.49
2023-03-31T21:25:42.302Z,83.18
2023-03-31T21:27:22.872Z,83.19
2023-03-31T21:29:00.141Z,83.27
2023-03-31T21:30:33.757Z,83.06
2023-03-31T21:32:08.468Z,83.05
2023-03-31T21:33:30.504Z,83.08
2023-03-31T21:34:54.674Z,82.90
2023-03-31T21:36:28.050Z,83.01
2023-03-31T21:38:21.584Z,82.92
2023-03-31T21:40:06.925Z,82.83
2023-03-31T21:41:30.772Z,83.09
2023-03-31T21:43:15.821Z,83.09
2023-03-31T21:45:07.474Z,83.02
2023-03-31T21:46:52.895Z,83.06
2023-03-31T21:48:28.659Z,83.11
2023-03-31T21:49:50.540Z,83.14
2023-03-31T21:51:25.236Z,83.19
2023-03-31T21:52:51.443Z,82.92
2023-03-31T21:54:26.384Z,82.65
2023-03-31T21:55:58.462Z,82.89
2023-03-31T21:57:20.297Z,82.91
2023-03-31T21:59:01.368Z,82.55
2023-03-31T22:00:47.973Z,82.64
2023-03-31T22:02:24.928Z,82.42